sensor_id;sensor_type;location;lat;lon;timestamp;P1;durP1;ratioP1;P2;durP2;ratioP2
60722;SDS011;46574;52.818;6.516;2023-09-19T00:00:42;4.93;;;1.85;;
60722;SDS011;46574;52.818;6.516;2023-09-19T00:03:09;4.00;;;1.85;;
60722;SDS011;46574;52.818;6.516;2023-09-19T00:05:37;4.07;;;1.65;;
60722;SDS011;46574;52.818;6.516;2023-09-19T00:08:09;5.28;;;1.50;;
60722;SDS011;46574;52.818;6.516;2023-09-19T00:10:35;5.15;;;1.70;;
60722;SDS011;46574;52.818;6.516;2023-09-19T00:13:01;6.30;;;1.80;;
60722;SDS011;46574;52.818;6.516;2023-09-19T00:15:35;3.58;;;1.70;;
60722;SDS011;46574;52.818;6.516;2023-09-19T00:18:14;4.93;;;1.83;;
60722;SDS011;46574;52.818;6.516;2023-09-19T00:20:44;2.97;;;1.40;;
60722;SDS011;46574;52.818;6.516;2023-09-19T00:23:14;4.25;;;1.42;;
60722;SDS011;46574;52.818;6.516;2023-09-19T00:25:40;5.45;;;1.52;;
60722;SDS011;46574;52.818;6.516;2023-09-19T00:28:06;5.28;;;1.35;;
60722;SDS011;46574;52.818;6.516;2023-09-19T00:30:33;4.20;;;1.60;;
60722;SDS011;46574;52.818;6.516;2023-09-19T00:32:59;3.53;;;1.40;;
60722;SDS011;46574;52.818;6.516;2023-09-19T00:35:26;5.18;;;1.58;;
60722;SDS011;46574;52.818;6.516;2023-09-19T00:37:52;6.20;;;1.40;;
60722;SDS011;46574;52.818;6.516;2023-09-19T00:40:18;6.47;;;2.45;;
60722;SDS011;46574;52.818;6.516;2023-09-19T00:42:45;6.72;;;1.88;;
60722;SDS011;46574;52.818;6.516;2023-09-19T00:45:12;3.88;;;1.30;;
60722;SDS011;46574;52.818;6.516;2023-09-19T00:47:39;3.65;;;1.50;;
60722;SDS011;46574;52.818;6.516;2023-09-19T00:50:07;7.70;;;2.42;;
60722;SDS011;46574;52.818;6.516;2023-09-19T00:52:36;6.38;;;1.90;;
60722;SDS011;46574;52.818;6.516;2023-09-19T00:55:06;3.97;;;1.30;;
60722;SDS011;46574;52.818;6.516;2023-09-19T00:57:33;5.40;;;1.52;;
60722;SDS011;46574;52.818;6.516;2023-09-19T01:00:01;3.92;;;1.50;;
60722;SDS011;46574;52.818;6.516;2023-09-19T01:02:33;3.75;;;1.42;;
60722;SDS011;46574;52.818;6.516;2023-09-19T01:04:59;8.25;;;1.85;;
60722;SDS011;46574;52.818;6.516;2023-09-19T01:07:29;5.78;;;2.10;;
60722;SDS011;46574;52.818;6.516;2023-09-19T01:09:59;5.60;;;1.77;;
60722;SDS011;46574;52.818;6.516;2023-09-19T01:12:33;6.35;;;2.00;;
60722;SDS011;46574;52.818;6.516;2023-09-19T01:17:48;5.88;;;2.00;;
60722;SDS011;46574;52.818;6.516;2023-09-19T01:20:20;6.93;;;1.92;;
60722;SDS011;46574;52.818;6.516;2023-09-19T01:23:11;4.40;;;1.90;;
60722;SDS011;46574;52.818;6.516;2023-09-19T01:25:59;5.88;;;1.55;;
60722;SDS011;46574;52.818;6.516;2023-09-19T01:28:51;6.55;;;1.90;;
60722;SDS011;46574;52.818;6.516;2023-09-19T01:31:38;4.88;;;1.70;;
60722;SDS011;46574;52.818;6.516;2023-09-19T01:34:07;7.55;;;1.77;;
60722;SDS011;46574;52.818;6.516;2023-09-19T01:36:37;3.85;;;1.60;;
60722;SDS011;46574;52.818;6.516;2023-09-19T01:39:12;4.90;;;1.50;;
60722;SDS011;46574;52.818;6.516;2023-09-19T01:44:31;6.13;;;2.17;;
60722;SDS011;46574;52.818;6.516;2023-09-19T01:47:19;5.43;;;2.28;;
60722;SDS011;46574;52.818;6.516;2023-09-19T01:50:05;7.28;;;2.15;;
60722;SDS011;46574;52.818;6.516;2023-09-19T01:52:56;5.18;;;1.90;;
60722;SDS011;46574;52.818;6.516;2023-09-19T01:55:29;6.40;;;2.35;;
60722;SDS011;46574;52.818;6.516;2023-09-19T01:58:06;6.05;;;2.22;;
60722;SDS011;46574;52.818;6.516;2023-09-19T02:00:38;7.22;;;1.95;;
60722;SDS011;46574;52.818;6.516;2023-09-19T02:03:08;4.63;;;1.85;;
60722;SDS011;46574;52.818;6.516;2023-09-19T02:05:35;5.80;;;2.10;;
60722;SDS011;46574;52.818;6.516;2023-09-19T02:08:00;5.88;;;1.70;;
60722;SDS011;46574;52.818;6.516;2023-09-19T02:10:26;4.28;;;2.13;;
60722;SDS011;46574;52.818;6.516;2023-09-19T02:12:52;6.82;;;2.30;;
60722;SDS011;46574;52.818;6.516;2023-09-19T02:15:18;4.40;;;2.08;;
60722;SDS011;46574;52.818;6.516;2023-09-19T02:17:44;4.07;;;1.92;;
60722;SDS011;46574;52.818;6.516;2023-09-19T02:20:11;6.50;;;2.33;;
60722;SDS011;46574;52.818;6.516;2023-09-19T02:22:39;6.00;;;2.00;;
60722;SDS011;46574;52.818;6.516;2023-09-19T02:25:09;5.40;;;2.25;;
60722;SDS011;46574;52.818;6.516;2023-09-19T02:27:35;6.03;;;2.05;;
60722;SDS011;46574;52.818;6.516;2023-09-19T02:30:02;6.50;;;2.22;;
60722;SDS011;46574;52.818;6.516;2023-09-19T02:32:29;2.65;;;1.85;;
60722;SDS011;46574;52.818;6.516;2023-09-19T02:34:56;7.03;;;2.08;;
60722;SDS011;46574;52.818;6.516;2023-09-19T02:37:23;7.03;;;2.15;;
60722;SDS011;46574;52.818;6.516;2023-09-19T02:39:49;8.95;;;2.28;;
60722;SDS011;46574;52.818;6.516;2023-09-19T02:42:14;5.70;;;2.00;;
60722;SDS011;46574;52.818;6.516;2023-09-19T02:44:40;7.03;;;2.22;;
60722;SDS011;46574;52.818;6.516;2023-09-19T02:47:06;5.25;;;1.88;;
60722;SDS011;46574;52.818;6.516;2023-09-19T02:49:31;5.72;;;2.15;;
60722;SDS011;46574;52.818;6.516;2023-09-19T02:51:57;6.15;;;2.03;;
60722;SDS011;46574;52.818;6.516;2023-09-19T02:54:24;11.82;;;3.00;;
60722;SDS011;46574;52.818;6.516;2023-09-19T02:56:50;3.53;;;1.80;;
60722;SDS011;46574;52.818;6.516;2023-09-19T02:59:15;6.53;;;2.30;;
60722;SDS011;46574;52.818;6.516;2023-09-19T03:01:44;6.38;;;2.50;;
60722;SDS011;46574;52.818;6.516;2023-09-19T03:04:13;7.00;;;2.30;;
60722;SDS011;46574;52.818;6.516;2023-09-19T03:06:42;8.13;;;2.33;;
60722;SDS011;46574;52.818;6.516;2023-09-19T03:09:08;8.65;;;2.30;;
60722;SDS011;46574;52.818;6.516;2023-09-19T03:11:38;7.30;;;1.90;;
60722;SDS011;46574;52.818;6.516;2023-09-19T03:14:05;5.20;;;1.90;;
60722;SDS011;46574;52.818;6.516;2023-09-19T03:16:31;5.20;;;1.85;;
60722;SDS011;46574;52.818;6.516;2023-09-19T03:18:56;3.97;;;1.73;;
60722;SDS011;46574;52.818;6.516;2023-09-19T03:21:23;2.58;;;1.63;;
60722;SDS011;46574;52.818;6.516;2023-09-19T03:23:50;9.07;;;2.20;;
60722;SDS011;46574;52.818;6.516;2023-09-19T03:26:16;4.72;;;2.35;;
60722;SDS011;46574;52.818;6.516;2023-09-19T03:28:42;4.20;;;2.10;;
60722;SDS011;46574;52.818;6.516;2023-09-19T03:31:08;4.93;;;1.80;;
60722;SDS011;46574;52.818;6.516;2023-09-19T03:33:34;4.93;;;1.75;;
60722;SDS011;46574;52.818;6.516;2023-09-19T03:36:01;4.32;;;2.00;;
60722;SDS011;46574;52.818;6.516;2023-09-19T03:38:31;5.75;;;2.05;;
60722;SDS011;46574;52.818;6.516;2023-09-19T03:40:57;3.92;;;2.30;;
60722;SDS011;46574;52.818;6.516;2023-09-19T03:43:23;5.70;;;2.35;;
60722;SDS011;46574;52.818;6.516;2023-09-19T03:45:49;4.20;;;2.10;;
60722;SDS011;46574;52.818;6.516;2023-09-19T03:48:16;5.28;;;2.53;;
60722;SDS011;46574;52.818;6.516;2023-09-19T03:50:42;5.25;;;2.00;;
60722;SDS011;46574;52.818;6.516;2023-09-19T03:53:09;6.57;;;2.20;;
60722;SDS011;46574;52.818;6.516;2023-09-19T03:55:34;4.18;;;2.00;;
60722;SDS011;46574;52.818;6.516;2023-09-19T03:58:01;4.45;;;2.28;;
60722;SDS011;46574;52.818;6.516;2023-09-19T04:00:27;4.63;;;2.00;;
60722;SDS011;46574;52.818;6.516;2023-09-19T04:02:54;6.00;;;2.40;;
60722;SDS011;46574;52.818;6.516;2023-09-19T04:05:22;4.38;;;2.30;;
60722;SDS011;46574;52.818;6.516;2023-09-19T04:07:48;7.45;;;2.05;;
60722;SDS011;46574;52.818;6.516;2023-09-19T04:10:13;7.78;;;2.58;;
60722;SDS011;46574;52.818;6.516;2023-09-19T04:12:40;6.10;;;1.95;;
60722;SDS011;46574;52.818;6.516;2023-09-19T04:15:06;5.20;;;1.90;;
60722;SDS011;46574;52.818;6.516;2023-09-19T04:17:32;7.68;;;2.20;;
60722;SDS011;46574;52.818;6.516;2023-09-19T04:19:58;5.15;;;2.22;;
60722;SDS011;46574;52.818;6.516;2023-09-19T04:22:24;6.00;;;2.30;;
60722;SDS011;46574;52.818;6.516;2023-09-19T04:24:50;5.70;;;2.53;;
60722;SDS011;46574;52.818;6.516;2023-09-19T04:27:16;8.10;;;2.17;;
60722;SDS011;46574;52.818;6.516;2023-09-19T04:29:42;7.35;;;2.20;;
60722;SDS011;46574;52.818;6.516;2023-09-19T04:32:08;5.80;;;2.13;;
60722;SDS011;46574;52.818;6.516;2023-09-19T04:34:34;6.22;;;2.33;;
60722;SDS011;46574;52.818;6.516;2023-09-19T04:37:00;8.18;;;2.80;;
60722;SDS011;46574;52.818;6.516;2023-09-19T04:39:27;5.93;;;2.40;;
60722;SDS011;46574;52.818;6.516;2023-09-19T04:41:53;8.38;;;2.65;;
60722;SDS011;46574;52.818;6.516;2023-09-19T04:44:19;7.88;;;2.28;;
60722;SDS011;46574;52.818;6.516;2023-09-19T04:46:46;5.63;;;2.58;;
60722;SDS011;46574;52.818;6.516;2023-09-19T04:49:12;8.23;;;3.00;;
60722;SDS011;46574;52.818;6.516;2023-09-19T04:51:38;6.20;;;2.25;;
60722;SDS011;46574;52.818;6.516;2023-09-19T04:54:05;6.57;;;2.80;;
60722;SDS011;46574;52.818;6.516;2023-09-19T04:56:31;8.57;;;2.67;;
60722;SDS011;46574;52.818;6.516;2023-09-19T04:58:57;6.80;;;2.60;;
60722;SDS011;46574;52.818;6.516;2023-09-19T05:01:24;6.18;;;2.30;;
60722;SDS011;46574;52.818;6.516;2023-09-19T05:03:50;6.78;;;2.72;;
60722;SDS011;46574;52.818;6.516;2023-09-19T05:08:48;6.72;;;2.40;;
60722;SDS011;46574;52.818;6.516;2023-09-19T05:11:21;6.38;;;2.65;;
60722;SDS011;46574;52.818;6.516;2023-09-19T05:13:48;10.02;;;2.80;;
60722;SDS011;46574;52.818;6.516;2023-09-19T05:16:15;9.68;;;2.90;;
60722;SDS011;46574;52.818;6.516;2023-09-19T05:18:41;6.65;;;2.67;;
60722;SDS011;46574;52.818;6.516;2023-09-19T05:21:07;5.60;;;2.92;;
60722;SDS011;46574;52.818;6.516;2023-09-19T05:23:33;7.05;;;2.22;;
60722;SDS011;46574;52.818;6.516;2023-09-19T05:25:58;5.68;;;2.20;;
60722;SDS011;46574;52.818;6.516;2023-09-19T05:28:25;7.55;;;2.90;;
60722;SDS011;46574;52.818;6.516;2023-09-19T05:30:51;7.88;;;2.45;;
60722;SDS011;46574;52.818;6.516;2023-09-19T05:33:20;7.35;;;2.67;;
60722;SDS011;46574;52.818;6.516;2023-09-19T05:35:47;16.77;;;3.35;;
60722;SDS011;46574;52.818;6.516;2023-09-19T05:38:13;6.40;;;2.72;;
60722;SDS011;46574;52.818;6.516;2023-09-19T05:40:40;6.93;;;2.40;;
60722;SDS011;46574;52.818;6.516;2023-09-19T05:43:07;10.18;;;2.65;;
60722;SDS011;46574;52.818;6.516;2023-09-19T05:45:33;10.75;;;2.83;;
60722;SDS011;46574;52.818;6.516;2023-09-19T05:48:09;8.57;;;2.53;;
60722;SDS011;46574;52.818;6.516;2023-09-19T05:50:40;9.35;;;2.60;;
60722;SDS011;46574;52.818;6.516;2023-09-19T05:53:06;5.38;;;2.10;;
60722;SDS011;46574;52.818;6.516;2023-09-19T05:55:32;7.40;;;2.08;;
60722;SDS011;46574;52.818;6.516;2023-09-19T05:57:58;10.13;;;2.40;;
60722;SDS011;46574;52.818;6.516;2023-09-19T06:00:24;6.43;;;2.38;;
60722;SDS011;46574;52.818;6.516;2023-09-19T06:02:56;9.83;;;2.90;;
60722;SDS011;46574;52.818;6.516;2023-09-19T06:05:23;6.22;;;2.42;;
60722;SDS011;46574;52.818;6.516;2023-09-19T06:07:51;6.85;;;2.25;;
60722;SDS011;46574;52.818;6.516;2023-09-19T06:10:18;8.88;;;2.88;;
60722;SDS011;46574;52.818;6.516;2023-09-19T06:12:46;6.03;;;2.20;;
60722;SDS011;46574;52.818;6.516;2023-09-19T06:15:13;10.07;;;2.50;;
60722;SDS011;46574;52.818;6.516;2023-09-19T06:17:48;7.50;;;2.25;;
60722;SDS011;46574;52.818;6.516;2023-09-19T06:20:15;5.40;;;2.03;;
60722;SDS011;46574;52.818;6.516;2023-09-19T06:22:42;7.45;;;2.55;;
60722;SDS011;46574;52.818;6.516;2023-09-19T06:25:12;11.00;;;3.10;;
60722;SDS011;46574;52.818;6.516;2023-09-19T06:27:44;8.90;;;2.55;;
60722;SDS011;46574;52.818;6.516;2023-09-19T06:30:10;8.02;;;2.45;;
60722;SDS011;46574;52.818;6.516;2023-09-19T06:35:09;7.28;;;2.53;;
60722;SDS011;46574;52.818;6.516;2023-09-19T06:37:39;5.38;;;2.30;;
60722;SDS011;46574;52.818;6.516;2023-09-19T06:40:09;8.00;;;2.47;;
60722;SDS011;46574;52.818;6.516;2023-09-19T06:42:39;8.55;;;3.13;;
60722;SDS011;46574;52.818;6.516;2023-09-19T06:45:10;9.68;;;2.88;;
60722;SDS011;46574;52.818;6.516;2023-09-19T06:47:38;4.93;;;2.20;;
60722;SDS011;46574;52.818;6.516;2023-09-19T06:50:05;7.05;;;2.33;;
60722;SDS011;46574;52.818;6.516;2023-09-19T06:52:34;7.03;;;2.13;;
60722;SDS011;46574;52.818;6.516;2023-09-19T06:55:00;7.43;;;2.65;;
60722;SDS011;46574;52.818;6.516;2023-09-19T06:57:28;7.07;;;2.78;;
60722;SDS011;46574;52.818;6.516;2023-09-19T06:59:55;6.22;;;2.28;;
60722;SDS011;46574;52.818;6.516;2023-09-19T07:02:21;8.32;;;2.17;;
60722;SDS011;46574;52.818;6.516;2023-09-19T07:04:47;8.68;;;2.15;;
60722;SDS011;46574;52.818;6.516;2023-09-19T07:07:14;6.32;;;2.33;;
60722;SDS011;46574;52.818;6.516;2023-09-19T07:09:41;7.68;;;2.03;;
60722;SDS011;46574;52.818;6.516;2023-09-19T07:12:07;5.28;;;2.45;;
60722;SDS011;46574;52.818;6.516;2023-09-19T07:14:33;7.28;;;2.28;;
60722;SDS011;46574;52.818;6.516;2023-09-19T07:16:59;6.50;;;2.33;;
60722;SDS011;46574;52.818;6.516;2023-09-19T07:19:28;6.82;;;2.47;;
60722;SDS011;46574;52.818;6.516;2023-09-19T07:21:55;9.48;;;2.50;;
60722;SDS011;46574;52.818;6.516;2023-09-19T07:24:20;8.25;;;2.58;;
60722;SDS011;46574;52.818;6.516;2023-09-19T07:26:49;6.20;;;2.60;;
60722;SDS011;46574;52.818;6.516;2023-09-19T07:29:15;7.78;;;2.50;;
60722;SDS011;46574;52.818;6.516;2023-09-19T07:31:40;7.45;;;2.38;;
60722;SDS011;46574;52.818;6.516;2023-09-19T07:34:07;6.72;;;1.98;;
60722;SDS011;46574;52.818;6.516;2023-09-19T07:36:34;7.70;;;2.40;;
60722;SDS011;46574;52.818;6.516;2023-09-19T07:39:00;7.43;;;2.28;;
60722;SDS011;46574;52.818;6.516;2023-09-19T07:41:25;10.73;;;3.00;;
60722;SDS011;46574;52.818;6.516;2023-09-19T07:43:52;6.80;;;2.88;;
60722;SDS011;46574;52.818;6.516;2023-09-19T07:46:17;8.02;;;2.25;;
60722;SDS011;46574;52.818;6.516;2023-09-19T07:48:43;9.48;;;2.45;;
60722;SDS011;46574;52.818;6.516;2023-09-19T07:51:13;9.20;;;2.50;;
60722;SDS011;46574;52.818;6.516;2023-09-19T07:53:40;7.85;;;2.70;;
60722;SDS011;46574;52.818;6.516;2023-09-19T07:56:08;8.10;;;2.65;;
60722;SDS011;46574;52.818;6.516;2023-09-19T07:58:35;7.75;;;2.38;;
60722;SDS011;46574;52.818;6.516;2023-09-19T08:01:06;6.78;;;2.38;;
60722;SDS011;46574;52.818;6.516;2023-09-19T08:03:33;8.07;;;2.53;;
60722;SDS011;46574;52.818;6.516;2023-09-19T08:05:59;7.93;;;2.78;;
60722;SDS011;46574;52.818;6.516;2023-09-19T08:08:26;6.35;;;2.28;;
60722;SDS011;46574;52.818;6.516;2023-09-19T08:10:56;7.93;;;2.60;;
60722;SDS011;46574;52.818;6.516;2023-09-19T08:13:22;7.95;;;2.50;;
60722;SDS011;46574;52.818;6.516;2023-09-19T08:15:49;7.97;;;2.40;;
60722;SDS011;46574;52.818;6.516;2023-09-19T08:18:16;6.72;;;2.08;;
60722;SDS011;46574;52.818;6.516;2023-09-19T08:20:42;7.53;;;2.42;;
60722;SDS011;46574;52.818;6.516;2023-09-19T08:23:11;8.65;;;2.42;;
60722;SDS011;46574;52.818;6.516;2023-09-19T08:25:36;6.00;;;2.40;;
60722;SDS011;46574;52.818;6.516;2023-09-19T08:28:04;7.07;;;2.90;;
60722;SDS011;46574;52.818;6.516;2023-09-19T08:30:33;6.55;;;2.70;;
60722;SDS011;46574;52.818;6.516;2023-09-19T08:33:00;8.20;;;2.50;;
60722;SDS011;46574;52.818;6.516;2023-09-19T08:35:26;7.00;;;2.80;;
60722;SDS011;46574;52.818;6.516;2023-09-19T08:37:52;10.30;;;2.97;;
60722;SDS011;46574;52.818;6.516;2023-09-19T08:40:18;5.10;;;2.05;;
60722;SDS011;46574;52.818;6.516;2023-09-19T08:42:51;8.02;;;2.40;;
60722;SDS011;46574;52.818;6.516;2023-09-19T08:45:18;7.15;;;2.30;;
60722;SDS011;46574;52.818;6.516;2023-09-19T08:48:01;7.57;;;2.65;;
60722;SDS011;46574;52.818;6.516;2023-09-19T08:50:32;7.50;;;2.53;;
60722;SDS011;46574;52.818;6.516;2023-09-19T08:53:06;7.22;;;2.90;;
60722;SDS011;46574;52.818;6.516;2023-09-19T08:55:37;8.02;;;2.15;;
60722;SDS011;46574;52.818;6.516;2023-09-19T08:58:08;8.77;;;2.85;;
60722;SDS011;46574;52.818;6.516;2023-09-19T09:00:35;10.90;;;3.50;;
60722;SDS011;46574;52.818;6.516;2023-09-19T09:03:02;11.00;;;3.03;;
60722;SDS011;46574;52.818;6.516;2023-09-19T09:05:29;7.78;;;2.80;;
60722;SDS011;46574;52.818;6.516;2023-09-19T09:07:57;8.15;;;3.22;;
60722;SDS011;46574;52.818;6.516;2023-09-19T09:10:24;6.47;;;2.60;;
60722;SDS011;46574;52.818;6.516;2023-09-19T09:12:53;8.35;;;2.97;;
60722;SDS011;46574;52.818;6.516;2023-09-19T09:15:22;10.27;;;2.92;;
60722;SDS011;46574;52.818;6.516;2023-09-19T09:17:49;7.00;;;2.95;;
60722;SDS011;46574;52.818;6.516;2023-09-19T09:20:17;6.40;;;2.55;;
60722;SDS011;46574;52.818;6.516;2023-09-19T09:22:53;8.23;;;2.40;;
60722;SDS011;46574;52.818;6.516;2023-09-19T09:25:21;11.38;;;3.38;;
60722;SDS011;46574;52.818;6.516;2023-09-19T09:27:58;11.30;;;2.65;;
60722;SDS011;46574;52.818;6.516;2023-09-19T09:33:12;12.52;;;3.83;;
60722;SDS011;46574;52.818;6.516;2023-09-19T09:35:52;8.90;;;2.20;;
60722;SDS011;46574;52.818;6.516;2023-09-19T09:38:25;10.80;;;3.28;;
60722;SDS011;46574;52.818;6.516;2023-09-19T09:40:56;9.70;;;2.70;;
60722;SDS011;46574;52.818;6.516;2023-09-19T09:46:20;8.43;;;2.58;;
60722;SDS011;46574;52.818;6.516;2023-09-19T09:48:56;7.22;;;2.03;;
60722;SDS011;46574;52.818;6.516;2023-09-19T09:51:42;10.40;;;2.65;;
60722;SDS011;46574;52.818;6.516;2023-09-19T09:54:13;7.13;;;2.58;;
60722;SDS011;46574;52.818;6.516;2023-09-19T09:56:55;8.80;;;2.38;;
60722;SDS011;46574;52.818;6.516;2023-09-19T10:02:15;10.05;;;2.63;;
60722;SDS011;46574;52.818;6.516;2023-09-19T10:04:54;7.20;;;2.13;;
60722;SDS011;46574;52.818;6.516;2023-09-19T10:07:39;7.20;;;2.47;;
60722;SDS011;46574;52.818;6.516;2023-09-19T10:15:14;7.47;;;2.80;;
60722;SDS011;46574;52.818;6.516;2023-09-19T10:17:42;8.98;;;2.72;;
60722;SDS011;46574;52.818;6.516;2023-09-19T10:20:11;9.98;;;3.42;;
60722;SDS011;46574;52.818;6.516;2023-09-19T10:23:08;8.30;;;3.17;;
60722;SDS011;46574;52.818;6.516;2023-09-19T10:25:37;6.53;;;2.57;;
60722;SDS011;46574;52.818;6.516;2023-09-19T10:28:05;9.87;;;3.17;;
60722;SDS011;46574;52.818;6.516;2023-09-19T10:30:36;10.32;;;3.50;;
60722;SDS011;46574;52.818;6.516;2023-09-19T10:33:16;8.13;;;2.90;;
60722;SDS011;46574;52.818;6.516;2023-09-19T10:35:46;10.32;;;3.75;;
60722;SDS011;46574;52.818;6.516;2023-09-19T10:38:20;9.43;;;2.90;;
60722;SDS011;46574;52.818;6.516;2023-09-19T10:40:51;9.45;;;2.70;;
60722;SDS011;46574;52.818;6.516;2023-09-19T10:43:20;8.07;;;2.70;;
60722;SDS011;46574;52.818;6.516;2023-09-19T10:45:49;7.45;;;3.30;;
60722;SDS011;46574;52.818;6.516;2023-09-19T10:48:17;5.05;;;2.78;;
60722;SDS011;46574;52.818;6.516;2023-09-19T10:50:48;6.82;;;2.53;;
60722;SDS011;46574;52.818;6.516;2023-09-19T10:53:24;8.60;;;2.75;;
60722;SDS011;46574;52.818;6.516;2023-09-19T10:55:54;8.25;;;2.70;;
60722;SDS011;46574;52.818;6.516;2023-09-19T10:58:28;6.65;;;2.50;;
60722;SDS011;46574;52.818;6.516;2023-09-19T11:00:56;7.30;;;2.63;;
60722;SDS011;46574;52.818;6.516;2023-09-19T11:03:27;5.50;;;2.63;;
60722;SDS011;46574;52.818;6.516;2023-09-19T11:11:39;7.53;;;2.67;;
60722;SDS011;46574;52.818;6.516;2023-09-19T11:30:40;8.32;;;2.20;;
60722;SDS011;46574;52.818;6.516;2023-09-19T11:33:16;7.78;;;2.50;;
60722;SDS011;46574;52.818;6.516;2023-09-19T11:43:48;6.40;;;2.30;;
60722;SDS011;46574;52.818;6.516;2023-09-19T11:46:15;11.60;;;2.75;;
60722;SDS011;46574;52.818;6.516;2023-09-19T11:48:47;5.85;;;2.30;;
60722;SDS011;46574;52.818;6.516;2023-09-19T11:51:18;11.02;;;3.05;;
60722;SDS011;46574;52.818;6.516;2023-09-19T11:53:51;7.43;;;2.70;;
60722;SDS011;46574;52.818;6.516;2023-09-19T11:56:27;6.97;;;2.45;;
60722;SDS011;46574;52.818;6.516;2023-09-19T11:58:54;5.28;;;2.10;;
60722;SDS011;46574;52.818;6.516;2023-09-19T12:01:24;6.75;;;2.33;;
60722;SDS011;46574;52.818;6.516;2023-09-19T12:03:56;7.53;;;2.20;;
60722;SDS011;46574;52.818;6.516;2023-09-19T12:06:23;6.70;;;2.10;;
60722;SDS011;46574;52.818;6.516;2023-09-19T12:08:50;5.75;;;1.98;;
60722;SDS011;46574;52.818;6.516;2023-09-19T12:11:19;6.57;;;2.20;;
60722;SDS011;46574;52.818;6.516;2023-09-19T12:13:46;7.30;;;2.20;;
60722;SDS011;46574;52.818;6.516;2023-09-19T12:18:40;5.18;;;2.20;;
60722;SDS011;46574;52.818;6.516;2023-09-19T12:21:25;7.03;;;2.35;;
60722;SDS011;46574;52.818;6.516;2023-09-19T12:26:29;9.35;;;2.45;;
60722;SDS011;46574;52.818;6.516;2023-09-19T12:29:02;8.65;;;2.50;;
60722;SDS011;46574;52.818;6.516;2023-09-19T12:31:30;6.50;;;1.95;;
60722;SDS011;46574;52.818;6.516;2023-09-19T12:34:01;4.80;;;1.90;;
60722;SDS011;46574;52.818;6.516;2023-09-19T12:36:27;8.23;;;2.05;;
60722;SDS011;46574;52.818;6.516;2023-09-19T12:38:58;5.93;;;2.10;;
60722;SDS011;46574;52.818;6.516;2023-09-19T12:41:25;4.85;;;1.77;;
60722;SDS011;46574;52.818;6.516;2023-09-19T12:43:52;5.18;;;2.10;;
60722;SDS011;46574;52.818;6.516;2023-09-19T12:46:22;4.28;;;2.17;;
60722;SDS011;46574;52.818;6.516;2023-09-19T12:51:42;4.75;;;2.00;;
60722;SDS011;46574;52.818;6.516;2023-09-19T12:54:08;6.00;;;2.05;;
60722;SDS011;46574;52.818;6.516;2023-09-19T12:56:42;5.28;;;1.90;;
60722;SDS011;46574;52.818;6.516;2023-09-19T12:59:14;4.53;;;2.05;;
60722;SDS011;46574;52.818;6.516;2023-09-19T13:01:40;6.63;;;2.10;;
60722;SDS011;46574;52.818;6.516;2023-09-19T13:04:13;5.05;;;2.10;;
60722;SDS011;46574;52.818;6.516;2023-09-19T13:06:49;5.28;;;2.38;;
60722;SDS011;46574;52.818;6.516;2023-09-19T13:09:15;6.50;;;2.25;;
60722;SDS011;46574;52.818;6.516;2023-09-19T13:11:43;5.88;;;1.90;;
60722;SDS011;46574;52.818;6.516;2023-09-19T13:14:26;3.78;;;2.13;;
60722;SDS011;46574;52.818;6.516;2023-09-19T13:17:06;4.30;;;2.00;;
60722;SDS011;46574;52.818;6.516;2023-09-19T13:19:45;6.40;;;1.80;;
60722;SDS011;46574;52.818;6.516;2023-09-19T13:25:11;5.63;;;2.20;;
60722;SDS011;46574;52.818;6.516;2023-09-19T13:27:47;5.72;;;2.28;;
60722;SDS011;46574;52.818;6.516;2023-09-19T13:30:23;5.88;;;1.92;;
60722;SDS011;46574;52.818;6.516;2023-09-19T13:32:52;5.97;;;1.98;;
60722;SDS011;46574;52.818;6.516;2023-09-19T13:35:30;5.85;;;1.77;;
60722;SDS011;46574;52.818;6.516;2023-09-19T13:37:56;5.45;;;2.03;;
60722;SDS011;46574;52.818;6.516;2023-09-19T13:40:21;4.90;;;1.73;;
60722;SDS011;46574;52.818;6.516;2023-09-19T13:42:47;5.18;;;1.83;;
60722;SDS011;46574;52.818;6.516;2023-09-19T13:45:13;3.88;;;1.50;;
60722;SDS011;46574;52.818;6.516;2023-09-19T13:47:42;4.93;;;1.73;;
60722;SDS011;46574;52.818;6.516;2023-09-19T13:50:08;7.50;;;1.40;;
60722;SDS011;46574;52.818;6.516;2023-09-19T13:52:34;3.80;;;1.90;;
60722;SDS011;46574;52.818;6.516;2023-09-19T13:54:59;4.55;;;1.50;;
60722;SDS011;46574;52.818;6.516;2023-09-19T13:57:26;4.18;;;1.50;;
60722;SDS011;46574;52.818;6.516;2023-09-19T13:59:52;4.30;;;2.13;;
60722;SDS011;46574;52.818;6.516;2023-09-19T14:02:19;3.95;;;1.60;;
60722;SDS011;46574;52.818;6.516;2023-09-19T14:04:51;3.22;;;1.55;;
60722;SDS011;46574;52.818;6.516;2023-09-19T14:07:17;3.15;;;1.65;;
60722;SDS011;46574;52.818;6.516;2023-09-19T14:09:45;5.95;;;1.63;;
60722;SDS011;46574;52.818;6.516;2023-09-19T14:12:11;4.45;;;1.40;;
60722;SDS011;46574;52.818;6.516;2023-09-19T14:14:38;5.88;;;1.38;;
60722;SDS011;46574;52.818;6.516;2023-09-19T14:17:04;3.95;;;1.30;;
60722;SDS011;46574;52.818;6.516;2023-09-19T14:19:30;2.92;;;1.30;;
60722;SDS011;46574;52.818;6.516;2023-09-19T14:21:56;4.28;;;1.35;;
60722;SDS011;46574;52.818;6.516;2023-09-19T14:24:22;3.30;;;1.50;;
60722;SDS011;46574;52.818;6.516;2023-09-19T14:26:48;5.60;;;1.77;;
60722;SDS011;46574;52.818;6.516;2023-09-19T14:29:14;1.55;;;1.00;;
60722;SDS011;46574;52.818;6.516;2023-09-19T14:31:42;3.33;;;1.40;;
60722;SDS011;46574;52.818;6.516;2023-09-19T14:34:08;2.90;;;1.20;;
60722;SDS011;46574;52.818;6.516;2023-09-19T14:36:37;3.67;;;1.23;;
60722;SDS011;46574;52.818;6.516;2023-09-19T14:39:06;3.88;;;1.17;;
60722;SDS011;46574;52.818;6.516;2023-09-19T14:41:33;5.45;;;1.70;;
60722;SDS011;46574;52.818;6.516;2023-09-19T14:43:59;7.82;;;1.50;;
60722;SDS011;46574;52.818;6.516;2023-09-19T14:46:27;2.27;;;1.10;;
60722;SDS011;46574;52.818;6.516;2023-09-19T14:48:53;3.85;;;1.58;;
60722;SDS011;46574;52.818;6.516;2023-09-19T14:51:19;4.60;;;1.20;;
60722;SDS011;46574;52.818;6.516;2023-09-19T14:53:45;5.30;;;1.33;;
60722;SDS011;46574;52.818;6.516;2023-09-19T14:56:12;3.60;;;1.40;;
60722;SDS011;46574;52.818;6.516;2023-09-19T14:58:38;2.40;;;1.27;;
60722;SDS011;46574;52.818;6.516;2023-09-19T15:01:05;5.47;;;1.30;;
60722;SDS011;46574;52.818;6.516;2023-09-19T15:03:35;3.72;;;1.30;;
60722;SDS011;46574;52.818;6.516;2023-09-19T15:06:04;4.70;;;1.38;;
60722;SDS011;46574;52.818;6.516;2023-09-19T15:08:31;5.63;;;1.45;;
60722;SDS011;46574;52.818;6.516;2023-09-19T15:10:59;4.57;;;1.60;;
60722;SDS011;46574;52.818;6.516;2023-09-19T15:13:29;4.20;;;1.27;;
60722;SDS011;46574;52.818;6.516;2023-09-19T15:16:01;4.63;;;1.30;;
60722;SDS011;46574;52.818;6.516;2023-09-19T15:18:28;3.95;;;1.05;;
60722;SDS011;46574;52.818;6.516;2023-09-19T15:21:02;5.95;;;1.45;;
60722;SDS011;46574;52.818;6.516;2023-09-19T15:23:29;4.53;;;1.42;;
60722;SDS011;46574;52.818;6.516;2023-09-19T15:26:02;3.50;;;1.40;;
60722;SDS011;46574;52.818;6.516;2023-09-19T15:28:32;4.85;;;1.42;;
60722;SDS011;46574;52.818;6.516;2023-09-19T15:31:02;2.60;;;1.10;;
60722;SDS011;46574;52.818;6.516;2023-09-19T15:33:38;4.00;;;1.17;;
60722;SDS011;46574;52.818;6.516;2023-09-19T15:41:22;4.60;;;1.15;;
60722;SDS011;46574;52.818;6.516;2023-09-19T15:43:52;2.60;;;1.25;;
60722;SDS011;46574;52.818;6.516;2023-09-19T15:46:19;3.25;;;1.48;;
60722;SDS011;46574;52.818;6.516;2023-09-19T15:48:45;3.08;;;1.17;;
60722;SDS011;46574;52.818;6.516;2023-09-19T15:51:11;4.07;;;1.48;;
60722;SDS011;46574;52.818;6.516;2023-09-19T15:53:44;3.25;;;1.20;;
60722;SDS011;46574;52.818;6.516;2023-09-19T15:56:12;4.38;;;1.50;;
60722;SDS011;46574;52.818;6.516;2023-09-19T15:58:41;4.20;;;1.40;;
60722;SDS011;46574;52.818;6.516;2023-09-19T16:01:09;4.03;;;1.95;;
60722;SDS011;46574;52.818;6.516;2023-09-19T16:03:39;3.72;;;1.15;;
60722;SDS011;46574;52.818;6.516;2023-09-19T16:06:08;3.70;;;1.92;;
60722;SDS011;46574;52.818;6.516;2023-09-19T16:08:41;4.40;;;1.30;;